sensor_id;sensor_type;location;lat;lon;timestamp;pressure;altitude;pressure_sealevel;temperature
37536;BMP180;23379;51.554;6.736;2023-06-14T00:00:13;100950.00;;;18.90
37536;BMP180;23379;51.554;6.736;2023-06-14T00:02:39;100932.00;;;19.00
37536;BMP180;23379;51.554;6.736;2023-06-14T00:05:05;100954.00;;;19.00
37536;BMP180;23379;51.554;6.736;2023-06-14T00:07:41;100950.00;;;18.70
37536;BMP180;23379;51.554;6.736;2023-06-14T00:10:14;100948.00;;;18.70
37536;BMP180;23379;51.554;6.736;2023-06-14T00:12:39;100953.00;;;18.60
37536;BMP180;23379;51.554;6.736;2023-06-14T00:15:05;100948.00;;;18.60
37536;BMP180;23379;51.554;6.736;2023-06-14T00:17:31;100948.00;;;18.50
37536;BMP180;23379;51.554;6.736;2023-06-14T00:19:57;100957.00;;;18.30
37536;BMP180;23379;51.554;6.736;2023-06-14T00:22:23;100950.00;;;18.20
37536;BMP180;23379;51.554;6.736;2023-06-14T00:24:54;100945.00;;;18.30
37536;BMP180;23379;51.554;6.736;2023-06-14T00:27:19;100955.00;;;18.40
37536;BMP180;23379;51.554;6.736;2023-06-14T00:29:45;100949.00;;;18.30
37536;BMP180;23379;51.554;6.736;2023-06-14T00:32:10;100960.00;;;18.30
37536;BMP180;23379;51.554;6.736;2023-06-14T00:34:35;100958.00;;;18.20
37536;BMP180;23379;51.554;6.736;2023-06-14T00:37:01;100970.00;;;17.90
37536;BMP180;23379;51.554;6.736;2023-06-14T00:39:26;100969.00;;;18.10
37536;BMP180;23379;51.554;6.736;2023-06-14T00:41:52;100963.00;;;18.00
37536;BMP180;23379;51.554;6.736;2023-06-14T00:44:18;100968.00;;;18.00
37536;BMP180;23379;51.554;6.736;2023-06-14T00:46:45;100948.00;;;17.90
37536;BMP180;23379;51.554;6.736;2023-06-14T00:49:12;100967.00;;;17.80
37536;BMP180;23379;51.554;6.736;2023-06-14T00:51:38;100961.00;;;18.00
37536;BMP180;23379;51.554;6.736;2023-06-14T00:54:04;100981.00;;;18.10
37536;BMP180;23379;51.554;6.736;2023-06-14T00:56:30;100978.00;;;18.10
37536;BMP180;23379;51.554;6.736;2023-06-14T00:58:56;100978.00;;;18.00
37536;BMP180;23379;51.554;6.736;2023-06-14T01:01:22;100974.00;;;18.00
37536;BMP180;23379;51.554;6.736;2023-06-14T01:03:49;100974.00;;;18.00
37536;BMP180;23379;51.554;6.736;2023-06-14T01:06:20;100986.00;;;18.00
37536;BMP180;23379;51.554;6.736;2023-06-14T01:09:06;100976.00;;;17.90
37536;BMP180;23379;51.554;6.736;2023-06-14T01:11:43;100975.00;;;17.80
37536;BMP180;23379;51.554;6.736;2023-06-14T01:14:11;100979.00;;;17.90
37536;BMP180;23379;51.554;6.736;2023-06-14T01:16:38;100990.00;;;18.00
37536;BMP180;23379;51.554;6.736;2023-06-14T01:19:05;100980.00;;;17.80
37536;BMP180;23379;51.554;6.736;2023-06-14T01:21:30;100985.00;;;18.00
37536;BMP180;23379;51.554;6.736;2023-06-14T01:23:58;100972.00;;;17.50
37536;BMP180;23379;51.554;6.736;2023-06-14T01:26:24;100976.00;;;17.80
37536;BMP180;23379;51.554;6.736;2023-06-14T01:28:52;100989.00;;;17.80
37536;BMP180;23379;51.554;6.736;2023-06-14T01:31:21;100978.00;;;17.70
37536;BMP180;23379;51.554;6.736;2023-06-14T01:33:49;100960.00;;;17.70
37536;BMP180;23379;51.554;6.736;2023-06-14T01:36:18;100986.00;;;17.70
37536;BMP180;23379;51.554;6.736;2023-06-14T01:38:45;100985.00;;;17.50
37536;BMP180;23379;51.554;6.736;2023-06-14T01:41:11;100975.00;;;17.40
37536;BMP180;23379;51.554;6.736;2023-06-14T01:43:38;100962.00;;;17.30
37536;BMP180;23379;51.554;6.736;2023-06-14T01:46:05;100975.00;;;17.60
37536;BMP180;23379;51.554;6.736;2023-06-14T01:48:31;100966.00;;;17.60
37536;BMP180;23379;51.554;6.736;2023-06-14T01:50:57;100975.00;;;17.60
37536;BMP180;23379;51.554;6.736;2023-06-14T01:53:22;100972.00;;;17.60
37536;BMP180;23379;51.554;6.736;2023-06-14T01:55:47;100968.00;;;17.50
37536;BMP180;23379;51.554;6.736;2023-06-14T01:58:14;100974.00;;;17.40
37536;BMP180;23379;51.554;6.736;2023-06-14T02:00:41;100970.00;;;17.20
37536;BMP180;23379;51.554;6.736;2023-06-14T02:03:08;100974.00;;;17.20
37536;BMP180;23379;51.554;6.736;2023-06-14T02:05:34;100965.00;;;17.30
37536;BMP180;23379;51.554;6.736;2023-06-14T02:08:00;100971.00;;;17.20
37536;BMP180;23379;51.554;6.736;2023-06-14T02:10:25;100963.00;;;17.10
37536;BMP180;23379;51.554;6.736;2023-06-14T02:12:51;100965.00;;;17.30
37536;BMP180;23379;51.554;6.736;2023-06-14T02:15:17;100980.00;;;16.90
37536;BMP180;23379;51.554;6.736;2023-06-14T02:17:43;100955.00;;;17.00
37536;BMP180;23379;51.554;6.736;2023-06-14T02:20:10;100971.00;;;17.30
37536;BMP180;23379;51.554;6.736;2023-06-14T02:22:35;100971.00;;;17.10
37536;BMP180;23379;51.554;6.736;2023-06-14T02:25:01;100980.00;;;17.10
37536;BMP180;23379;51.554;6.736;2023-06-14T02:27:26;100975.00;;;17.10
37536;BMP180;23379;51.554;6.736;2023-06-14T02:29:52;100972.00;;;17.10
37536;BMP180;23379;51.554;6.736;2023-06-14T02:32:17;100981.00;;;16.90
37536;BMP180;23379;51.554;6.736;2023-06-14T02:34:42;100975.00;;;16.80
37536;BMP180;23379;51.554;6.736;2023-06-14T02:37:08;100978.00;;;16.90
37536;BMP180;23379;51.554;6.736;2023-06-14T02:39:34;100984.00;;;17.10
37536;BMP180;23379;51.554;6.736;2023-06-14T02:41:59;100986.00;;;17.00
37536;BMP180;23379;51.554;6.736;2023-06-14T02:44:25;100985.00;;;16.60
37536;BMP180;23379;51.554;6.736;2023-06-14T02:46:55;100975.00;;;16.60
37536;BMP180;23379;51.554;6.736;2023-06-14T02:49:21;100990.00;;;16.90
37536;BMP180;23379;51.554;6.736;2023-06-14T02:51:46;100988.00;;;16.90
37536;BMP180;23379;51.554;6.736;2023-06-14T02:54:12;100983.00;;;16.80
37536;BMP180;23379;51.554;6.736;2023-06-14T02:56:37;100999.00;;;16.50
37536;BMP180;23379;51.554;6.736;2023-06-14T02:59:02;100985.00;;;16.30
37536;BMP180;23379;51.554;6.736;2023-06-14T03:01:28;100981.00;;;16.60
37536;BMP180;23379;51.554;6.736;2023-06-14T03:04:01;100990.00;;;16.70
37536;BMP180;23379;51.554;6.736;2023-06-14T03:06:28;100996.00;;;16.50
37536;BMP180;23379;51.554;6.736;2023-06-14T03:08:55;100968.00;;;16.40
37536;BMP180;23379;51.554;6.736;2023-06-14T03:11:24;100984.00;;;16.50
37536;BMP180;23379;51.554;6.736;2023-06-14T03:13:50;101013.00;;;16.20
37536;BMP180;23379;51.554;6.736;2023-06-14T03:16:16;101002.00;;;16.30
37536;BMP180;23379;51.554;6.736;2023-06-14T03:18:45;101010.00;;;16.40
37536;BMP180;23379;51.554;6.736;2023-06-14T03:21:10;101008.00;;;16.30
37536;BMP180;23379;51.554;6.736;2023-06-14T03:23:36;101019.00;;;16.50
37536;BMP180;23379;51.554;6.736;2023-06-14T03:26:01;101005.00;;;16.50
37536;BMP180;23379;51.554;6.736;2023-06-14T03:28:27;101017.00;;;16.30
37536;BMP180;23379;51.554;6.736;2023-06-14T03:30:52;101023.00;;;16.20
37536;BMP180;23379;51.554;6.736;2023-06-14T03:33:18;101002.00;;;16.30
37536;BMP180;23379;51.554;6.736;2023-06-14T03:35:43;101017.00;;;16.40
37536;BMP180;23379;51.554;6.736;2023-06-14T03:38:08;101010.00;;;16.50
37536;BMP180;23379;51.554;6.736;2023-06-14T03:40:34;101021.00;;;16.50
37536;BMP180;23379;51.554;6.736;2023-06-14T03:42:59;101020.00;;;16.30
37536;BMP180;23379;51.554;6.736;2023-06-14T03:45:25;101032.00;;;16.40
37536;BMP180;23379;51.554;6.736;2023-06-14T03:47:50;101010.00;;;16.40
37536;BMP180;23379;51.554;6.736;2023-06-14T03:50:17;101043.00;;;16.30
37536;BMP180;23379;51.554;6.736;2023-06-14T03:52:43;101013.00;;;16.30
37536;BMP180;23379;51.554;6.736;2023-06-14T03:55:09;101042.00;;;16.40
37536;BMP180;23379;51.554;6.736;2023-06-14T03:57:35;101034.00;;;16.60
37536;BMP180;23379;51.554;6.736;2023-06-14T04:00:01;101035.00;;;16.70
37536;BMP180;23379;51.554;6.736;2023-06-14T04:02:26;101051.00;;;16.40
37536;BMP180;23379;51.554;6.736;2023-06-14T04:04:54;101072.00;;;16.40
37536;BMP180;23379;51.554;6.736;2023-06-14T04:07:20;101061.00;;;16.20
37536;BMP180;23379;51.554;6.736;2023-06-14T04:09:46;101070.00;;;16.50
37536;BMP180;23379;51.554;6.736;2023-06-14T04:12:12;101041.00;;;16.30
37536;BMP180;23379;51.554;6.736;2023-06-14T04:14:40;101058.00;;;16.30
37536;BMP180;23379;51.554;6.736;2023-06-14T04:17:06;101058.00;;;16.60
37536;BMP180;23379;51.554;6.736;2023-06-14T04:19:32;101052.00;;;16.70
37536;BMP180;23379;51.554;6.736;2023-06-14T04:21:58;101078.00;;;16.70
37536;BMP180;23379;51.554;6.736;2023-06-14T04:24:26;101062.00;;;16.90
37536;BMP180;23379;51.554;6.736;2023-06-14T04:26:57;101062.00;;;17.20
37536;BMP180;23379;51.554;6.736;2023-06-14T04:29:24;101078.00;;;17.60
37536;BMP180;23379;51.554;6.736;2023-06-14T04:31:49;101083.00;;;18.00
37536;BMP180;23379;51.554;6.736;2023-06-14T04:34:16;101054.00;;;18.20
37536;BMP180;23379;51.554;6.736;2023-06-14T04:36:42;101068.00;;;18.60
37536;BMP180;23379;51.554;6.736;2023-06-14T04:39:17;101079.00;;;19.20
37536;BMP180;23379;51.554;6.736;2023-06-14T04:41:46;101093.00;;;19.30
37536;BMP180;23379;51.554;6.736;2023-06-14T04:44:12;101090.00;;;19.30
37536;BMP180;23379;51.554;6.736;2023-06-14T04:46:38;101078.00;;;19.30
37536;BMP180;23379;51.554;6.736;2023-06-14T04:49:14;101084.00;;;19.30
37536;BMP180;23379;51.554;6.736;2023-06-14T04:51:44;101096.00;;;19.20
37536;BMP180;23379;51.554;6.736;2023-06-14T04:54:10;101084.00;;;19.30
37536;BMP180;23379;51.554;6.736;2023-06-14T04:56:38;101095.00;;;19.00
37536;BMP180;23379;51.554;6.736;2023-06-14T04:59:04;101086.00;;;18.90
37536;BMP180;23379;51.554;6.736;2023-06-14T05:01:30;101103.00;;;18.50
37536;BMP180;23379;51.554;6.736;2023-06-14T05:03:59;101096.00;;;18.30
37536;BMP180;23379;51.554;6.736;2023-06-14T05:06:25;101092.00;;;18.20
37536;BMP180;23379;51.554;6.736;2023-06-14T05:08:54;101110.00;;;18.30
37536;BMP180;23379;51.554;6.736;2023-06-14T05:11:19;101102.00;;;18.40
37536;BMP180;23379;51.554;6.736;2023-06-14T05:13:45;101085.00;;;18.50
37536;BMP180;23379;51.554;6.736;2023-06-14T05:16:12;101096.00;;;18.40
37536;BMP180;23379;51.554;6.736;2023-06-14T05:18:37;101099.00;;;18.40
37536;BMP180;23379;51.554;6.736;2023-06-14T05:21:03;101114.00;;;18.30
37536;BMP180;23379;51.554;6.736;2023-06-14T05:23:30;101109.00;;;18.40
37536;BMP180;23379;51.554;6.736;2023-06-14T05:25:56;101110.00;;;18.40
37536;BMP180;23379;51.554;6.736;2023-06-14T05:28:22;101100.00;;;18.50
37536;BMP180;23379;51.554;6.736;2023-06-14T05:30:47;101123.00;;;19.20
37536;BMP180;23379;51.554;6.736;2023-06-14T05:33:13;101115.00;;;20.70
37536;BMP180;23379;51.554;6.736;2023-06-14T06:00:24;101130.00;;;20.70
37536;BMP180;23379;51.554;6.736;2023-06-14T06:02:50;101156.00;;;20.50
37536;BMP180;23379;51.554;6.736;2023-06-14T06:05:15;101141.00;;;20.30
37536;BMP180;23379;51.554;6.736;2023-06-14T06:07:41;101153.00;;;19.90
37536;BMP180;23379;51.554;6.736;2023-06-14T06:10:07;101158.00;;;19.90
37536;BMP180;23379;51.554;6.736;2023-06-14T06:12:33;101141.00;;;19.90
37536;BMP180;23379;51.554;6.736;2023-06-14T06:14:59;101146.00;;;19.70
37536;BMP180;23379;51.554;6.736;2023-06-14T06:17:28;101156.00;;;19.90
37536;BMP180;23379;51.554;6.736;2023-06-14T06:19:54;101156.00;;;20.00
37536;BMP180;23379;51.554;6.736;2023-06-14T06:22:19;101148.00;;;19.90
37536;BMP180;23379;51.554;6.736;2023-06-14T06:24:44;101155.00;;;20.50
37536;BMP180;23379;51.554;6.736;2023-06-14T06:27:10;101160.00;;;20.40
37536;BMP180;23379;51.554;6.736;2023-06-14T06:29:35;101167.00;;;20.30
37536;BMP180;23379;51.554;6.736;2023-06-14T06:32:01;101154.00;;;20.30
37536;BMP180;23379;51.554;6.736;2023-06-14T06:34:27;101164.00;;;20.60
37536;BMP180;23379;51.554;6.736;2023-06-14T06:36:52;101157.00;;;20.80
37536;BMP180;23379;51.554;6.736;2023-06-14T06:39:18;101173.00;;;20.60
37536;BMP180;23379;51.554;6.736;2023-06-14T06:41:43;101181.00;;;20.70
37536;BMP180;23379;51.554;6.736;2023-06-14T06:44:08;101185.00;;;21.00
37536;BMP180;23379;51.554;6.736;2023-06-14T06:46:36;101177.00;;;21.20
37536;BMP180;23379;51.554;6.736;2023-06-14T06:49:05;101183.00;;;21.50
37536;BMP180;23379;51.554;6.736;2023-06-14T06:51:31;101193.00;;;21.20
37536;BMP180;23379;51.554;6.736;2023-06-14T06:53:56;101182.00;;;20.80
37536;BMP180;23379;51.554;6.736;2023-06-14T06:56:21;101170.00;;;21.00
37536;BMP180;23379;51.554;6.736;2023-06-14T06:58:49;101189.00;;;21.00
37536;BMP180;23379;51.554;6.736;2023-06-14T07:01:14;101202.00;;;20.70
37536;BMP180;23379;51.554;6.736;2023-06-14T07:03:39;101205.00;;;20.70
37536;BMP180;23379;51.554;6.736;2023-06-14T07:06:05;101203.00;;;21.00
37536;BMP180;23379;51.554;6.736;2023-06-14T07:08:31;101201.00;;;20.90
37536;BMP180;23379;51.554;6.736;2023-06-14T07:10:56;101201.00;;;20.90
37536;BMP180;23379;51.554;6.736;2023-06-14T07:15:58;101215.00;;;20.80
37536;BMP180;23379;51.554;6.736;2023-06-14T07:18:23;101205.00;;;21.10
37536;BMP180;23379;51.554;6.736;2023-06-14T07:20:49;101203.00;;;21.20
37536;BMP180;23379;51.554;6.736;2023-06-14T07:23:15;101219.00;;;21.20
37536;BMP180;23379;51.554;6.736;2023-06-14T07:25:41;101219.00;;;21.50
37536;BMP180;23379;51.554;6.736;2023-06-14T07:28:06;101207.00;;;21.40
37536;BMP180;23379;51.554;6.736;2023-06-14T07:30:32;101210.00;;;21.50
37536;BMP180;23379;51.554;6.736;2023-06-14T07:32:57;101220.00;;;21.60
37536;BMP180;23379;51.554;6.736;2023-06-14T07:35:23;101204.00;;;21.70
37536;BMP180;23379;51.554;6.736;2023-06-14T07:37:48;101174.00;;;21.70
37536;BMP180;23379;51.554;6.736;2023-06-14T07:40:15;101201.00;;;21.60
37536;BMP180;23379;51.554;6.736;2023-06-14T07:42:40;101216.00;;;22.00
37536;BMP180;23379;51.554;6.736;2023-06-14T07:45:06;101195.00;;;22.00
37536;BMP180;23379;51.554;6.736;2023-06-14T07:47:35;101210.00;;;22.20
37536;BMP180;23379;51.554;6.736;2023-06-14T07:50:00;101205.00;;;22.20
37536;BMP180;23379;51.554;6.736;2023-06-14T07:52:26;101207.00;;;22.50
37536;BMP180;23379;51.554;6.736;2023-06-14T07:54:51;101213.00;;;22.80
37536;BMP180;23379;51.554;6.736;2023-06-14T07:57:17;101208.00;;;23.10
37536;BMP180;23379;51.554;6.736;2023-06-14T07:59:45;101208.00;;;23.20
37536;BMP180;23379;51.554;6.736;2023-06-14T08:02:10;101224.00;;;23.10
37536;BMP180;23379;51.554;6.736;2023-06-14T08:04:35;101213.00;;;23.00
37536;BMP180;23379;51.554;6.736;2023-06-14T08:07:01;101212.00;;;23.80
37536;BMP180;23379;51.554;6.736;2023-06-14T08:09:26;101224.00;;;23.90
37536;BMP180;23379;51.554;6.736;2023-06-14T08:11:54;101221.00;;;23.60
37536;BMP180;23379;51.554;6.736;2023-06-14T08:14:19;101222.00;;;22.80
37536;BMP180;23379;51.554;6.736;2023-06-14T08:16:44;101215.00;;;23.50
37536;BMP180;23379;51.554;6.736;2023-06-14T08:19:10;101211.00;;;24.50
37536;BMP180;23379;51.554;6.736;2023-06-14T08:21:35;101228.00;;;24.80
37536;BMP180;23379;51.554;6.736;2023-06-14T08:24:01;101241.00;;;24.90
37536;BMP180;23379;51.554;6.736;2023-06-14T08:26:27;101227.00;;;24.90
37536;BMP180;23379;51.554;6.736;2023-06-14T08:28:56;101234.00;;;25.40
37536;BMP180;23379;51.554;6.736;2023-06-14T08:31:23;101195.00;;;25.60
37536;BMP180;23379;51.554;6.736;2023-06-14T08:33:49;101233.00;;;25.60
37536;BMP180;23379;51.554;6.736;2023-06-14T08:36:15;101231.00;;;26.20
37536;BMP180;23379;51.554;6.736;2023-06-14T08:38:41;101243.00;;;27.20
37536;BMP180;23379;51.554;6.736;2023-06-14T08:41:06;101213.00;;;26.00
37536;BMP180;23379;51.554;6.736;2023-06-14T08:43:33;101223.00;;;26.10
37536;BMP180;23379;51.554;6.736;2023-06-14T08:46:00;101236.00;;;26.40
37536;BMP180;23379;51.554;6.736;2023-06-14T08:48:26;101234.00;;;27.10
37536;BMP180;23379;51.554;6.736;2023-06-14T08:50:54;101232.00;;;27.70
37536;BMP180;23379;51.554;6.736;2023-06-14T08:53:28;101218.00;;;27.40
37536;BMP180;23379;51.554;6.736;2023-06-14T08:55:54;101218.00;;;27.40
37536;BMP180;23379;51.554;6.736;2023-06-14T08:58:20;101222.00;;;27.30
37536;BMP180;23379;51.554;6.736;2023-06-14T09:00:49;101220.00;;;27.20
37536;BMP180;23379;51.554;6.736;2023-06-14T09:03:17;101244.00;;;27.10
37536;BMP180;23379;51.554;6.736;2023-06-14T09:05:45;101239.00;;;26.60
37536;BMP180;23379;51.554;6.736;2023-06-14T09:08:11;101233.00;;;26.10
37536;BMP180;23379;51.554;6.736;2023-06-14T09:10:36;101235.00;;;26.20
37536;BMP180;23379;51.554;6.736;2023-06-14T09:13:03;101234.00;;;26.90
37536;BMP180;23379;51.554;6.736;2023-06-14T09:15:30;101239.00;;;27.30
37536;BMP180;23379;51.554;6.736;2023-06-14T09:17:56;101235.00;;;26.50
37536;BMP180;23379;51.554;6.736;2023-06-14T09:20:24;101232.00;;;27.30
37536;BMP180;23379;51.554;6.736;2023-06-14T09:22:49;101244.00;;;27.40
37536;BMP180;23379;51.554;6.736;2023-06-14T09:25:14;101236.00;;;26.80
37536;BMP180;23379;51.554;6.736;2023-06-14T09:27:41;101255.00;;;26.80
37536;BMP180;23379;51.554;6.736;2023-06-14T09:30:10;101224.00;;;27.40
37536;BMP180;23379;51.554;6.736;2023-06-14T09:32:39;101243.00;;;26.40
37536;BMP180;23379;51.554;6.736;2023-06-14T09:35:09;101248.00;;;27.20
37536;BMP180;23379;51.554;6.736;2023-06-14T09:37:35;101251.00;;;27.90
37536;BMP180;23379;51.554;6.736;2023-06-14T09:40:00;101218.00;;;28.60
37536;BMP180;23379;51.554;6.736;2023-06-14T09:42:26;101241.00;;;28.50
37536;BMP180;23379;51.554;6.736;2023-06-14T09:44:54;101238.00;;;27.70
37536;BMP180;23379;51.554;6.736;2023-06-14T09:47:20;101262.00;;;28.00
37536;BMP180;23379;51.554;6.736;2023-06-14T09:49:46;101237.00;;;27.50
37536;BMP180;23379;51.554;6.736;2023-06-14T09:52:15;101245.00;;;27.30
37536;BMP180;23379;51.554;6.736;2023-06-14T09:54:42;101265.00;;;28.40
37536;BMP180;23379;51.554;6.736;2023-06-14T09:57:23;101264.00;;;28.60
37536;BMP180;23379;51.554;6.736;2023-06-14T09:59:53;101271.00;;;29.00
37536;BMP180;23379;51.554;6.736;2023-06-14T10:02:30;101230.00;;;27.90
37536;BMP180;23379;51.554;6.736;2023-06-14T10:05:03;101244.00;;;28.10
37536;BMP180;23379;51.554;6.736;2023-06-14T10:07:32;101265.00;;;27.90
37536;BMP180;23379;51.554;6.736;2023-06-14T10:10:00;101264.00;;;26.30
37536;BMP180;23379;51.554;6.736;2023-06-14T10:12:26;101278.00;;;26.60
37536;BMP180;23379;51.554;6.736;2023-06-14T10:14:53;101243.00;;;26.20
37536;BMP180;23379;51.554;6.736;2023-06-14T10:17:27;101271.00;;;27.80
37536;BMP180;23379;51.554;6.736;2023-06-14T10:20:10;101260.00;;;25.20
37536;BMP180;23379;51.554;6.736;2023-06-14T10:22:46;101244.00;;;25.60
37536;BMP180;23379;51.554;6.736;2023-06-14T10:25:29;101263.00;;;26.70
37536;BMP180;23379;51.554;6.736;2023-06-14T10:28:16;101237.00;;;26.90
37536;BMP180;23379;51.554;6.736;2023-06-14T10:33:35;101259.00;;;28.60
37536;BMP180;23379;51.554;6.736;2023-06-14T10:38:33;101247.00;;;29.10
37536;BMP180;23379;51.554;6.736;2023-06-14T10:40:59;101237.00;;;28.40
37536;BMP180;23379;51.554;6.736;2023-06-14T10:43:25;101249.00;;;27.40
37536;BMP180;23379;51.554;6.736;2023-06-14T10:48:41;101243.00;;;27.30
37536;BMP180;23379;51.554;6.736;2023-06-14T10:51:18;101246.00;;;28.50
37536;BMP180;23379;51.554;6.736;2023-06-14T10:53:49;101259.00;;;29.20
37536;BMP180;23379;51.554;6.736;2023-06-14T10:56:30;101267.00;;;28.10
37536;BMP180;23379;51.554;6.736;2023-06-14T10:58:58;101258.00;;;27.30
37536;BMP180;23379;51.554;6.736;2023-06-14T11:01:37;101267.00;;;28.10
37536;BMP180;23379;51.554;6.736;2023-06-14T11:04:07;101260.00;;;27.80
37536;BMP180;23379;51.554;6.736;2023-06-14T11:06:50;101261.00;;;29.20
37536;BMP180;23379;51.554;6.736;2023-06-14T11:09:35;101245.00;;;27.70
37536;BMP180;23379;51.554;6.736;2023-06-14T11:12:09;101251.00;;;28.10
37536;BMP180;23379;51.554;6.736;2023-06-14T11:14:35;101241.00;;;27.50
37536;BMP180;23379;51.554;6.736;2023-06-14T11:17:01;101239.00;;;28.00
37536;BMP180;23379;51.554;6.736;2023-06-14T11:19:26;101242.00;;;28.10
37536;BMP180;23379;51.554;6.736;2023-06-14T11:21:54;101244.00;;;28.70
37536;BMP180;23379;51.554;6.736;2023-06-14T11:24:19;101274.00;;;30.00
37536;BMP180;23379;51.554;6.736;2023-06-14T11:26:47;101253.00;;;28.50
37536;BMP180;23379;51.554;6.736;2023-06-14T11:29:14;101257.00;;;26.60
37536;BMP180;23379;51.554;6.736;2023-06-14T11:31:43;101247.00;;;27.60
37536;BMP180;23379;51.554;6.736;2023-06-14T11:34:09;101247.00;;;29.60
37536;BMP180;23379;51.554;6.736;2023-06-14T11:36:35;101236.00;;;28.20
37536;BMP180;23379;51.554;6.736;2023-06-14T11:39:04;101260.00;;;28.90
37536;BMP180;23379;51.554;6.736;2023-06-14T11:41:38;101257.00;;;29.30
37536;BMP180;23379;51.554;6.736;2023-06-14T11:44:04;101239.00;;;28.70
37536;BMP180;23379;51.554;6.736;2023-06-14T11:46:30;101232.00;;;29.60
37536;BMP180;23379;51.554;6.736;2023-06-14T11:48:56;101238.00;;;29.10
37536;BMP180;23379;51.554;6.736;2023-06-14T11:51:21;101175.00;;;29.90
37536;BMP180;23379;51.554;6.736;2023-06-14T11:53:47;101251.00;;;29.80
37536;BMP180;23379;51.554;6.736;2023-06-14T11:56:13;101243.00;;;31.10
37536;BMP180;23379;51.554;6.736;2023-06-14T11:58:38;101240.00;;;31.20
37536;BMP180;23379;51.554;6.736;2023-06-14T12:01:05;101264.00;;;30.80
37536;BMP180;23379;51.554;6.736;2023-06-14T12:03:30;101266.00;;;30.00
37536;BMP180;23379;51.554;6.736;2023-06-14T12:06:06;101254.00;;;30.60
37536;BMP180;23379;51.554;6.736;2023-06-14T12:08:36;101245.00;;;30.30
37536;BMP180;23379;51.554;6.736;2023-06-14T12:11:12;101256.00;;;29.20
37536;BMP180;23379;51.554;6.736;2023-06-14T12:13:39;101210.00;;;29.70
37536;BMP180;23379;51.554;6.736;2023-06-14T12:16:10;101235.00;;;29.90
37536;BMP180;23379;51.554;6.736;2023-06-14T12:18:37;101242.00;;;30.50
37536;BMP180;23379;51.554;6.736;2023-06-14T12:21:04;101233.00;;;31.00
37536;BMP180;23379;51.554;6.736;2023-06-14T12:23:48;101245.00;;;31.90
37536;BMP180;23379;51.554;6.736;2023-06-14T12:26:18;101240.00;;;31.50
37536;BMP180;23379;51.554;6.736;2023-06-14T12:28:45;101207.00;;;30.80
37536;BMP180;23379;51.554;6.736;2023-06-14T12:31:12;101234.00;;;30.00
37536;BMP180;23379;51.554;6.736;2023-06-14T12:33:38;101196.00;;;30.30
37536;BMP180;23379;51.554;6.736;2023-06-14T12:36:04;101228.00;;;29.40
37536;BMP180;23379;51.554;6.736;2023-06-14T12:38:31;101239.00;;;31.20
37536;BMP180;23379;51.554;6.736;2023-06-14T12:40:56;101190.00;;;30.20
37536;BMP180;23379;51.554;6.736;2023-06-14T12:43:22;101253.00;;;32.20
37536;BMP180;23379;51.554;6.736;2023-06-14T12:45:48;101252.00;;;31.10
37536;BMP180;23379;51.554;6.736;2023-06-14T12:48:13;101245.00;;;30.60
37536;BMP180;23379;51.554;6.736;2023-06-14T12:50:39;101242.00;;;30.10
37536;BMP180;23379;51.554;6.736;2023-06-14T12:53:04;101236.00;;;28.90
37536;BMP180;23379;51.554;6.736;2023-06-14T12:55:29;101246.00;;;30.60
37536;BMP180;23379;51.554;6.736;2023-06-14T12:57:55;101240.00;;;30.80
37536;BMP180;23379;51.554;6.736;2023-06-14T13:00:20;101260.00;;;30.50
37536;BMP180;23379;51.554;6.736;2023-06-14T13:02:47;101247.00;;;29.70
37536;BMP180;23379;51.554;6.736;2023-06-14T13:05:12;101237.00;;;31.00
37536;BMP180;23379;51.554;6.736;2023-06-14T13:07:38;101247.00;;;30.10
37536;BMP180;23379;51.554;6.736;2023-06-14T13:10:03;101243.00;;;29.80
37536;BMP180;23379;51.554;6.736;2023-06-14T13:12:29;101250.00;;;30.40
37536;BMP180;23379;51.554;6.736;2023-06-14T13:14:54;101246.00;;;31.30
37536;BMP180;23379;51.554;6.736;2023-06-14T13:17:19;101235.00;;;30.50
37536;BMP180;23379;51.554;6.736;2023-06-14T13:19:45;101239.00;;;29.90
37536;BMP180;23379;51.554;6.736;2023-06-14T13:22:10;101251.00;;;30.30
37536;BMP180;23379;51.554;6.736;2023-06-14T13:24:36;101246.00;;;29.80
37536;BMP180;23379;51.554;6.736;2023-06-14T13:27:01;101235.00;;;30.70
37536;BMP180;23379;51.554;6.736;2023-06-14T13:29:27;101233.00;;;30.50
37536;BMP180;23379;51.554;6.736;2023-06-14T13:31:53;101226.00;;;31.00
37536;BMP180;23379;51.554;6.736;2023-06-14T13:34:18;101246.00;;;30.00
37536;BMP180;23379;51.554;6.736;2023-06-14T13:36:44;101237.00;;;27.60
37536;BMP180;23379;51.554;6.736;2023-06-14T13:39:10;101242.00;;;28.70
37536;BMP180;23379;51.554;6.736;2023-06-14T13:41:36;101249.00;;;29.40
37536;BMP180;23379;51.554;6.736;2023-06-14T13:44:03;101234.00;;;27.10
37536;BMP180;23379;51.554;6.736;2023-06-14T13:46:31;101236.00;;;26.10
37536;BMP180;23379;51.554;6.736;2023-06-14T13:48:57;101250.00;;;26.10
37536;BMP180;23379;51.554;6.736;2023-06-14T13:51:23;101237.00;;;26.10
37536;BMP180;23379;51.554;6.736;2023-06-14T13:53:49;101231.00;;;26.40
37536;BMP180;23379;51.554;6.736;2023-06-14T13:56:15;101230.00;;;26.40
37536;BMP180;23379;51.554;6.736;2023-06-14T13:58:40;101229.00;;;26.30
37536;BMP180;23379;51.554;6.736;2023-06-14T14:01:06;101230.00;;;26.30
37536;BMP180;23379;51.554;6.736;2023-06-14T14:03:32;101235.00;;;26.50
37536;BMP180;23379;51.554;6.736;2023-06-14T14:06:01;101215.00;;;27.00
37536;BMP180;23379;51.554;6.736;2023-06-14T14:08:26;101240.00;;;26.80
37536;BMP180;23379;51.554;6.736;2023-06-14T14:10:52;101230.00;;;26.30
37536;BMP180;23379;51.554;6.736;2023-06-14T14:13:17;101227.00;;;26.20
37536;BMP180;23379;51.554;6.736;2023-06-14T14:15:42;101206.00;;;25.80
37536;BMP180;23379;51.554;6.736;2023-06-14T14:18:08;101233.00;;;24.90
37536;BMP180;23379;51.554;6.736;2023-06-14T14:20:34;101218.00;;;25.30
37536;BMP180;23379;51.554;6.736;2023-06-14T14:22:59;101227.00;;;26.00
37536;BMP180;23379;51.554;6.736;2023-06-14T14:25:24;101235.00;;;25.90
37536;BMP180;23379;51.554;6.736;2023-06-14T14:27:50;101219.00;;;25.50
37536;BMP180;23379;51.554;6.736;2023-06-14T14:30:15;101216.00;;;25.10